Time;durP1;ratioP1;P1;durP2;ratioP2;P2;SDS_P1;SDS_P2;PMS_P1;PMS_P2;Temp;Humidity;BMP_temperature;BMP_pressure;BME280_temperature;BME280_humidity;BME280_pressure;Samples;Min_cycle;Max_cycle;Signal;HPM_P1;HPM_P2
2023/04/24 00:00:04;;;;;;;0.00;0.00;;;10.40;99.90;;;;;;4918258;29;20055;-94
2023/04/24 00:02:46;;;;;;;0.00;0.00;;;10.30;99.90;;;;;;4907795;29;20138;-93
2023/04/24 00:05:41;;;;;;;0.00;0.00;;;10.20;99.90;;;;;;4893709;29;20135;-91
2023/04/24 00:08:16;;;;;;;0.00;0.00;;;10.20;99.90;;;;;;4907723;29;20527;-93
2023/04/24 00:10:55;;;;;;;0.00;0.00;;;10.30;99.90;;;;;;4893361;29;20055;-92
2023/04/24 00:13:30;;;;;;;0.00;0.00;;;10.20;99.90;;;;;;4891834;29;20527;-92
2023/04/24 00:16:07;;;;;;;0.00;0.00;;;10.20;99.90;;;;;;4907967;29;20062;-91
2023/04/24 00:18:36;;;;;;;0.00;0.00;;;10.20;99.90;;;;;;4892171;29;20062;-92
2023/04/24 00:21:09;;;;;;;0.25;0.08;;;10.20;99.90;;;;;;4923289;29;20139;-92
2023/04/24 00:23:40;;;;;;;0.20;0.00;;;10.20;99.90;;;;;;4891810;29;20095;-89
2023/04/24 00:26:17;;;;;;;0.00;0.00;;;10.20;99.90;;;;;;4906858;29;20138;-90
2023/04/24 00:28:51;;;;;;;0.00;0.00;;;10.20;99.90;;;;;;4906770;29;20107;-90
2023/04/24 00:31:25;;;;;;;0.00;0.00;;;10.20;99.90;;;;;;4906833;29;20054;-90
2023/04/24 00:34:08;;;;;;;0.00;0.00;;;10.20;99.90;;;;;;4906838;29;20102;-91
2023/04/24 00:36:51;;;;;;;0.00;0.00;;;10.10;99.90;;;;;;4907997;29;20052;-92
2023/04/24 00:39:40;;;;;;;0.00;0.00;;;10.10;99.90;;;;;;4894308;29;20055;-93
2023/04/24 00:42:11;;;;;;;0.00;0.00;;;10.10;99.90;;;;;;4893107;29;20511;-92
2023/04/24 00:45:26;;;;;;;0.00;0.00;;;10.10;99.90;;;;;;4922499;29;20044;-92
2023/04/24 00:47:55;;;;;;;0.00;0.00;;;10.10;99.90;;;;;;4905907;29;20055;-92
2023/04/24 00:50:26;;;;;;;0.00;0.00;;;10.10;99.90;;;;;;4906560;29;20046;-91
2023/04/24 00:52:52;;;;;;;0.03;0.03;;;10.00;99.90;;;;;;4890942;29;20098;-90
2023/04/24 00:55:18;;;;;;;0.00;0.00;;;10.00;99.90;;;;;;4905578;29;20074;-90
2023/04/24 00:57:48;;;;;;;0.00;0.00;;;9.90;99.90;;;;;;4921652;29;20519;-90
2023/04/24 01:00:17;;;;;;;0.00;0.00;;;10.00;99.90;;;;;;4902558;29;20052;-89
2023/04/24 01:02:47;;;;;;;0.00;0.00;;;10.00;99.90;;;;;;4886792;29;20055;-91
2023/04/24 01:05:23;;;;;;;0.00;0.00;;;9.90;99.90;;;;;;4902563;29;20082;-90
2023/04/24 01:07:51;;;;;;;0.00;0.00;;;9.90;99.90;;;;;;4918762;29;20063;-90
2023/04/24 01:10:36;;;;;;;0.00;0.00;;;9.90;99.90;;;;;;4902539;29;20051;-89
2023/04/24 01:13:20;;;;;;;0.00;0.00;;;9.90;99.90;;;;;;4918101;29;20512;-90
2023/04/24 01:15:52;;;;;;;0.00;0.00;;;9.90;99.90;;;;;;4902207;29;20051;-90
2023/04/24 01:18:27;;;;;;;0.00;0.00;;;9.80;99.90;;;;;;4902445;29;20511;-90
2023/04/24 01:21:07;;;;;;;0.00;0.00;;;9.90;99.90;;;;;;4902837;29;20048;-90
2023/04/24 01:23:39;;;;;;;0.00;0.00;;;9.80;99.90;;;;;;4902463;29;20052;-90
2023/04/24 01:26:16;;;;;;;0.00;0.00;;;9.80;99.90;;;;;;4887258;29;20052;-90
2023/04/24 01:28:54;;;;;;;0.00;0.00;;;9.80;99.90;;;;;;4888277;29;20192;-90
2023/04/24 01:31:23;;;;;;;0.00;0.00;;;9.80;99.90;;;;;;4902496;29;20114;-89
2023/04/24 01:34:15;;;;;;;0.20;0.00;;;9.80;99.90;;;;;;4902333;29;20048;-90
2023/04/24 01:37:04;;;;;;;;;;;;;;;;;;;;;
2023/04/24 01:39:38;;;;;;;0.00;0.00;;;9.80;99.90;;;;;;4890319;29;20056;-89
2023/04/24 01:42:14;;;;;;;0.00;0.00;;;9.70;99.90;;;;;;4886626;29;20052;-88
2023/04/24 01:44:43;;;;;;;0.00;0.00;;;9.70;99.90;;;;;;4901460;29;20386;-89
2023/04/24 01:47:15;;;;;;;0.00;0.00;;;9.70;99.90;;;;;;4918138;29;20134;-89
2023/04/24 01:49:58;;;;;;;0.47;0.08;;;9.70;99.90;;;;;;4901944;29;20123;-88
2023/04/24 01:52:31;;;;;;;0.00;0.00;;;9.70;99.90;;;;;;4902185;29;20056;-89
2023/04/24 01:54:59;;;;;;;0.00;0.00;;;9.70;99.90;;;;;;4901959;29;20048;-89
2023/04/24 01:57:33;;;;;;;0.00;0.00;;;9.70;99.90;;;;;;4901650;29;20052;-89
2023/04/24 02:00:13;;;;;;;;;;;;;;;;;;;;;
2023/04/24 02:02:42;;;;;;;0.00;0.00;;;9.70;99.90;;;;;;4903560;29;20048;-88
2023/04/24 02:05:16;;;;;;;0.00;0.00;;;9.70;99.90;;;;;;4901352;29;20409;-88
2023/04/24 02:07:44;;;;;;;0.00;0.00;;;9.60;99.90;;;;;;4900645;29;20087;-89
2023/04/24 02:10:11;;;;;;;0.00;0.00;;;9.70;99.90;;;;;;4901631;29;20094;-89
2023/04/24 02:12:48;;;;;;;0.00;0.00;;;9.70;99.90;;;;;;4917166;29;20408;-89
2023/04/24 02:15:17;;;;;;;0.03;0.00;;;9.60;99.90;;;;;;4901731;29;20080;-88
2023/04/24 02:17:48;;;;;;;0.20;0.20;;;9.80;99.90;;;;;;4901537;29;20054;-89
2023/04/24 02:20:17;;;;;;;0.00;0.00;;;9.80;99.90;;;;;;4901229;29;20056;-90
2023/04/24 02:22:55;;;;;;;0.00;0.00;;;9.80;99.90;;;;;;4901689;29;20083;-89
2023/04/24 02:25:23;;;;;;;0.00;0.00;;;9.80;99.90;;;;;;4901309;29;20463;-89
2023/04/24 02:28:12;;;;;;;0.00;0.00;;;9.80;99.90;;;;;;4901431;29;20430;-89
2023/04/24 02:30:45;;;;;;;0.00;0.00;;;9.80;99.90;;;;;;4917003;29;20471;-90
2023/04/24 02:33:14;;;;;;;0.00;0.00;;;9.80;99.90;;;;;;4901839;29;20054;-89
2023/04/24 02:35:47;;;;;;;0.00;0.00;;;9.70;99.90;;;;;;4901943;29;20051;-88
2023/04/24 02:38:15;;;;;;;0.00;0.00;;;9.80;99.90;;;;;;4900968;29;20068;-88
2023/04/24 02:40:49;;;;;;;0.00;0.00;;;9.80;99.90;;;;;;4901076;29;20048;-88
2023/04/24 02:43:14;;;;;;;0.10;0.03;;;9.80;99.90;;;;;;4900149;29;20583;-88
2023/04/24 02:45:43;;;;;;;0.45;0.00;;;9.80;99.90;;;;;;4916556;29;20131;-88
2023/04/24 02:48:09;;;;;;;0.00;0.00;;;9.80;99.90;;;;;;4901305;29;20142;-88
2023/04/24 02:50:37;;;;;;;0.00;0.00;;;9.80;99.90;;;;;;4900595;29;20103;-88
2023/04/24 02:53:03;;;;;;;0.00;0.00;;;9.80;99.90;;;;;;4917430;29;20051;-88
2023/04/24 02:55:29;;;;;;;0.00;0.00;;;9.70;99.90;;;;;;4916499;29;20055;-89
2023/04/24 02:58:03;;;;;;;0.00;0.00;;;9.70;99.90;;;;;;4900524;29;20524;-89
2023/04/24 03:03:23;;;;;;;0.00;0.00;;;9.70;99.90;;;;;;4896823;29;20086;-89
2023/04/24 03:05:50;;;;;;;0.00;0.00;;;9.70;99.90;;;;;;4903808;29;20059;-89
2023/04/24 03:08:24;;;;;;;0.00;0.00;;;9.70;99.90;;;;;;4903420;29;20110;-88
2023/04/24 03:10:50;;;;;;;0.00;0.00;;;9.70;99.90;;;;;;4903891;29;20084;-89
2023/04/24 03:13:18;;;;;;;0.00;0.00;;;9.70;99.90;;;;;;4919170;29;20047;-89
2023/04/24 03:15:44;;;;;;;0.00;0.00;;;9.70;99.90;;;;;;4903759;29;20051;-88
2023/04/24 03:18:15;;;;;;;0.00;0.00;;;9.70;99.90;;;;;;4889906;29;20483;-89
2023/04/24 03:20:48;;;;;;;0.00;0.00;;;9.70;99.90;;;;;;4907736;29;20411;-89
2023/04/24 03:23:16;;;;;;;0.00;0.00;;;9.60;99.90;;;;;;4877872;29;20091;-89
2023/04/24 03:25:45;;;;;;;0.00;0.00;;;9.60;99.90;;;;;;4907886;29;20130;-89
2023/04/24 03:28:13;;;;;;;0.00;0.00;;;9.60;99.90;;;;;;4923247;29;20052;-88
2023/04/24 03:31:10;;;;;;;0.08;0.08;;;9.60;99.90;;;;;;4923202;29;20063;-89
2023/04/24 03:33:40;;;;;;;0.00;0.00;;;9.50;99.90;;;;;;4923204;29;20482;-89
2023/04/24 03:36:09;;;;;;;0.00;0.00;;;9.60;99.90;;;;;;4907032;29;20052;-88
2023/04/24 03:38:35;;;;;;;0.45;0.00;;;9.50;99.90;;;;;;4907189;29;20061;-88
2023/04/24 03:41:16;;;;;;;6.07;0.98;;;9.50;99.90;;;;;;4922940;29;20052;-88
2023/04/24 03:43:45;;;;;;;0.80;0.15;;;9.50;99.90;;;;;;4922240;29;20055;-88
2023/04/24 03:46:15;;;;;;;0.00;0.00;;;9.90;99.90;;;;;;4922874;29;20055;-88
2023/04/24 03:48:51;;;;;;;0.00;0.00;;;9.50;99.90;;;;;;4923365;29;20039;-88
2023/04/24 03:51:22;;;;;;;0.32;0.17;;;9.50;99.90;;;;;;4923218;29;20130;-89
2023/04/24 03:53:53;;;;;;;0.00;0.00;;;9.50;99.90;;;;;;4922689;29;20500;-88
2023/04/24 03:56:19;;;;;;;0.00;0.00;;;9.40;99.90;;;;;;4906752;29;20044;-89
2023/04/24 03:58:50;;;;;;;2.00;0.00;;;9.50;99.90;;;;;;4891217;29;20134;-89
2023/04/24 04:01:20;;;;;;;0.03;0.00;;;9.50;99.90;;;;;;4891798;29;20496;-88
2023/04/24 04:03:48;;;;;;;0.10;0.10;;;9.50;99.90;;;;;;4906612;29;20048;-88
2023/04/24 04:06:19;;;;;;;0.00;0.00;;;9.50;99.90;;;;;;4922707;29;20138;-88
2023/04/24 04:08:54;;;;;;;0.00;0.00;;;9.50;99.90;;;;;;4922471;29;20059;-88
2023/04/24 04:11:20;;;;;;;0.00;0.00;;;9.50;99.90;;;;;;4906892;29;20058;-88
2023/04/24 04:13:47;;;;;;;0.00;0.00;;;9.50;99.90;;;;;;4890415;29;20052;-87
2023/04/24 04:16:19;;;;;;;0.00;0.00;;;9.50;99.90;;;;;;4922203;29;20515;-88
2023/04/24 04:18:50;;;;;;;0.00;0.00;;;9.50;99.90;;;;;;4906226;29;20638;-88
2023/04/24 04:21:15;;;;;;;0.65;0.45;;;9.50;99.90;;;;;;4906459;29;20541;-88
2023/04/24 04:23:41;;;;;;;0.00;0.00;;;9.40;99.90;;;;;;4906095;29;20055;-88
2023/04/24 04:26:12;;;;;;;0.00;0.00;;;9.50;99.90;;;;;;4906427;29;20055;-88
2023/04/24 04:28:41;;;;;;;0.00;0.00;;;9.40;99.90;;;;;;4922083;29;20506;-89
2023/04/24 04:31:09;;;;;;;0.00;0.00;;;9.40;99.90;;;;;;4905359;29;20071;-89
2023/04/24 04:33:40;;;;;;;0.00;0.00;;;9.40;99.90;;;;;;4906416;29;20088;-92
2023/04/24 04:36:15;;;;;;;0.00;0.00;;;9.50;99.90;;;;;;4892206;29;20154;-92
2023/04/24 04:38:44;;;;;;;0.00;0.00;;;9.40;99.90;;;;;;4906592;29;20055;-89
2023/04/24 04:41:13;;;;;;;0.00;0.00;;;9.40;99.90;;;;;;4905870;29;20048;-88
2023/04/24 04:43:40;;;;;;;0.00;0.00;;;9.40;99.90;;;;;;4890558;29;20056;-89
2023/04/24 04:46:08;;;;;;;0.00;0.00;;;9.50;99.90;;;;;;4905823;29;20052;-91
2023/04/24 04:48:37;;;;;;;0.00;0.00;;;9.40;99.90;;;;;;4921396;29;20051;-90
2023/04/24 04:51:12;;;;;;;0.00;0.00;;;9.40;99.90;;;;;;4905640;29;20048;-93
2023/04/24 04:53:53;;;;;;;;;;;;;;;;;;;;;
2023/04/24 04:56:30;;;;;;;0.15;0.10;;;9.40;99.90;;;;;;4907946;29;20051;-91
2023/04/24 04:58:59;;;;;;;0.50;0.10;;;9.40;99.90;;;;;;4907975;29;20060;-91
2023/04/24 05:01:40;;;;;;;0.00;0.00;;;9.40;99.90;;;;;;4906532;29;20389;-92
2023/04/24 05:04:09;;;;;;;0.10;0.10;;;9.40;99.90;;;;;;4906069;29;20056;-89
2023/04/24 05:06:37;;;;;;;0.00;0.00;;;9.40;99.90;;;;;;4890065;29;20059;-88
2023/04/24 05:09:05;;;;;;;0.00;0.00;;;9.40;99.90;;;;;;4905448;29;20048;-89
2023/04/24 05:11:33;;;;;;;0.10;0.10;;;9.40;99.90;;;;;;4921294;29;20040;-89
2023/04/24 05:14:04;;;;;;;0.10;0.00;;;9.40;99.90;;;;;;4905692;29;20051;-92
2023/04/24 05:16:47;;;;;;;;;;;;;;;;;;;;;
2023/04/24 05:19:25;;;;;;;;;;;;;;;;;;;;;
2023/04/24 05:22:24;;;;;;;;;;;;;;;;;;;;;
2023/04/24 05:24:55;;;;;;;0.08;0.08;;;9.40;99.90;;;;;;4919882;29;20106;-89
2023/04/24 05:27:21;;;;;;;0.28;0.28;;;9.40;99.90;;;;;;4904578;29;20051;-90
2023/04/24 05:29:53;;;;;;;0.05;0.00;;;9.40;99.90;;;;;;4890677;29;20110;-89
2023/04/24 05:32:28;;;;;;;0.00;0.00;;;9.40;99.90;;;;;;4918275;29;20102;-89
2023/04/24 05:34:56;;;;;;;0.00;0.00;;;9.40;99.90;;;;;;4886117;29;20051;-89
2023/04/24 05:37:32;;;;;;;0.00;0.00;;;9.40;99.90;;;;;;4901232;29;20044;-90
2023/04/24 05:39:58;;;;;;;0.00;0.00;;;9.40;99.90;;;;;;4870381;29;20056;-88
2023/04/24 05:42:34;;;;;;;0.03;0.00;;;9.40;99.90;;;;;;4900235;29;20111;-91
2023/04/24 05:45:18;;;;;;;;;;;;;;;;;;;;;
2023/04/24 05:48:09;;;;;;;0.10;0.00;;;9.40;99.90;;;;;;4902774;29;20063;-91
2023/04/24 05:51:08;;;;;;;;;;;;;;;;;;;;;
2023/04/24 05:53:40;;;;;;;0.00;0.00;;;9.40;99.90;;;;;;4900662;29;20052;-91
2023/04/24 05:56:14;;;;;;;0.00;0.00;;;9.40;99.90;;;;;;4901258;29;20544;-92
2023/04/24 05:58:46;;;;;;;0.00;0.00;;;9.30;99.90;;;;;;4870905;29;20052;-92
2023/04/24 06:01:20;;;;;;;0.08;0.00;;;9.30;99.90;;;;;;4904688;29;20060;-91
2023/04/24 06:03:51;;;;;;;1.02;0.20;;;9.40;99.90;;;;;;4887600;29;20095;-89
2023/04/24 06:06:19;;;;;;;0.00;0.00;;;9.30;99.90;;;;;;4876609;29;20135;-89
2023/04/24 06:08:47;;;;;;;0.00;0.00;;;9.40;99.90;;;;;;4885788;29;20052;-89
2023/04/24 06:11:22;;;;;;;0.00;0.00;;;9.30;99.90;;;;;;4901373;29;20493;-89
2023/04/24 06:13:48;;;;;;;;;;;9.30;99.90;;;;;;4885789;29;20080;-88
2023/04/24 06:16:14;;;;;;;0.00;0.00;;;9.30;99.90;;;;;;4885786;29;19923;-86
2023/04/24 06:18:40;;;;;;;0.00;0.00;;;9.30;99.90;;;;;;4901150;29;20051;-83
2023/04/24 06:21:06;;;;;;;0.10;0.00;;;9.20;99.90;;;;;;4870439;29;20056;-82
2023/04/24 06:23:32;;;;;;;0.00;0.00;;;9.20;99.90;;;;;;4885672;29;20052;-82
2023/04/24 06:25:58;;;;;;;0.00;0.00;;;9.20;99.90;;;;;;4900961;29;20083;-81
2023/04/24 06:28:24;;;;;;;0.00;0.00;;;9.20;99.90;;;;;;4870032;29;20056;-81
2023/04/24 06:30:50;;;;;;;0.10;0.00;;;9.20;99.90;;;;;;4900729;29;20067;-84
2023/04/24 06:33:16;;;;;;;0.00;0.00;;;9.20;99.90;;;;;;4885910;29;20052;-81
2023/04/24 06:35:42;;;;;;;0.00;0.00;;;9.20;99.90;;;;;;4870075;29;20405;-82
2023/04/24 06:38:08;;;;;;;0.22;0.00;;;9.20;99.90;;;;;;4885400;29;20051;-83
2023/04/24 06:40:33;;;;;;;0.00;0.00;;;9.20;99.90;;;;;;4885407;29;20055;-82
2023/04/24 06:43:00;;;;;;;0.00;0.00;;;9.30;99.90;;;;;;4900260;29;20048;-81
2023/04/24 06:45:25;;;;;;;0.00;0.00;;;9.30;99.90;;;;;;4885130;29;20048;-79
2023/04/24 06:47:52;;;;;;;0.00;0.00;;;9.30;99.90;;;;;;4885386;29;20055;-81
2023/04/24 06:50:18;;;;;;;0.00;0.00;;;9.30;99.90;;;;;;4885266;29;20047;-84
2023/04/24 06:52:44;;;;;;;0.00;0.00;;;9.20;99.90;;;;;;4884963;29;20048;-86
2023/04/24 06:55:11;;;;;;;0.00;0.00;;;9.20;99.90;;;;;;4869932;29;20485;-86
2023/04/24 06:57:36;;;;;;;0.00;0.00;;;9.20;99.90;;;;;;4884935;29;20481;-85
2023/04/24 07:00:04;;;;;;;0.00;0.00;;;9.20;99.90;;;;;;4914559;29;20088;-86
2023/04/24 07:02:30;;;;;;;0.05;0.03;;;9.20;99.90;;;;;;4888487;29;20110;-85
2023/04/24 07:04:56;;;;;;;0.00;0.00;;;9.20;99.90;;;;;;4903741;29;20083;-84
2023/04/24 07:07:23;;;;;;;0.00;0.00;;;9.20;99.90;;;;;;4919541;29;20449;-82
2023/04/24 07:09:50;;;;;;;0.00;0.00;;;9.20;99.90;;;;;;4903598;29;20047;-83
2023/04/24 07:12:16;;;;;;;0.00;0.00;;;9.20;99.90;;;;;;4918820;29;20048;-82
2023/04/24 07:14:42;;;;;;;0.00;0.00;;;9.20;99.90;;;;;;4904531;29;20059;-81
2023/04/24 07:17:08;;;;;;;0.13;0.10;;;9.20;99.90;;;;;;4903758;29;20544;-82
2023/04/24 07:19:35;;;;;;;0.00;0.00;;;9.20;99.90;;;;;;4919306;29;20051;-81
2023/04/24 07:22:01;;;;;;;0.00;0.00;;;9.20;99.90;;;;;;4903752;29;20051;-83
2023/04/24 07:24:27;;;;;;;0.03;0.00;;;9.20;99.90;;;;;;4888015;29;20043;-82
2023/04/24 07:26:54;;;;;;;0.00;0.00;;;9.20;99.90;;;;;;4919304;29;20389;-83
2023/04/24 07:29:20;;;;;;;0.00;0.00;;;9.20;99.90;;;;;;4919320;29;20063;-82
2023/04/24 07:31:46;;;;;;;0.03;0.03;;;9.20;99.90;;;;;;4903698;29;20404;-82
2023/04/24 07:34:12;;;;;;;0.00;0.00;;;9.20;99.90;;;;;;4918857;29;20040;-82
2023/04/24 07:36:38;;;;;;;0.35;0.10;;;9.20;99.90;;;;;;4903455;29;20207;-82
2023/04/24 07:39:05;;;;;;;0.00;0.00;;;9.30;99.90;;;;;;4919150;29;20140;-85
2023/04/24 07:41:31;;;;;;;0.00;0.00;;;9.40;99.90;;;;;;4903198;29;20118;-82
2023/04/24 07:43:58;;;;;;;0.00;0.00;;;9.50;99.90;;;;;;4934604;29;20476;-83
2023/04/24 07:46:24;;;;;;;0.00;0.00;;;9.50;99.90;;;;;;4919203;29;20054;-83
2023/04/24 07:48:50;;;;;;;0.00;0.00;;;9.60;99.90;;;;;;4903403;29;20048;-83
2023/04/24 07:51:16;;;;;;;0.00;0.00;;;9.60;99.90;;;;;;4918940;29;20051;-83
2023/04/24 07:53:43;;;;;;;0.00;0.00;;;9.70;99.90;;;;;;4899256;29;20054;-82
2023/04/24 07:56:09;;;;;;;0.00;0.00;;;9.70;99.90;;;;;;4899398;29;20304;-82
2023/04/24 07:58:35;;;;;;;0.00;0.00;;;9.70;99.90;;;;;;4891425;29;20048;-83
2023/04/24 08:01:01;;;;;;;0.00;0.00;;;9.80;99.90;;;;;;4902321;29;20062;-83
2023/04/24 08:03:27;;;;;;;0.00;0.00;;;9.80;99.90;;;;;;4901908;29;20047;-84
2023/04/24 08:05:52;;;;;;;0.00;0.00;;;9.80;99.90;;;;;;4921489;29;20044;-82
2023/04/24 08:08:21;;;;;;;0.00;0.00;;;9.80;99.90;;;;;;4890023;29;20056;-83
2023/04/24 08:10:47;;;;;;;0.32;0.00;;;9.80;99.90;;;;;;4905348;29;20054;-83
2023/04/24 08:13:12;;;;;;;0.00;0.00;;;9.80;99.90;;;;;;4889279;29;20055;-84
2023/04/24 08:15:38;;;;;;;0.00;0.00;;;9.80;99.90;;;;;;4905865;29;20122;-87
2023/04/24 08:18:04;;;;;;;0.00;0.00;;;9.90;99.90;;;;;;4889796;29;20134;-84
2023/04/24 08:20:30;;;;;;;0.00;0.00;;;9.90;99.90;;;;;;4905195;29;20060;-84
2023/04/24 08:22:56;;;;;;;0.00;0.00;;;9.90;99.90;;;;;;4889504;29;20106;-85
2023/04/24 08:25:23;;;;;;;0.10;0.00;;;9.90;99.90;;;;;;4889614;29;20043;-84
2023/04/24 08:27:49;;;;;;;0.00;0.00;;;10.00;99.90;;;;;;4905369;29;20063;-83
2023/04/24 08:30:14;;;;;;;0.00;0.00;;;10.00;99.90;;;;;;4889822;29;20055;-84
2023/04/24 08:32:41;;;;;;;0.00;0.00;;;10.00;99.90;;;;;;4904938;29;20040;-85
2023/04/24 08:35:09;;;;;;;0.00;0.00;;;10.00;99.90;;;;;;4905614;29;20059;-85
2023/04/24 08:37:35;;;;;;;0.00;0.00;;;10.00;99.90;;;;;;4905054;29;20409;-84
2023/04/24 08:40:06;;;;;;;0.00;0.00;;;10.10;99.90;;;;;;4911736;29;20084;-86
2023/04/24 08:42:33;;;;;;;0.00;0.00;;;10.10;99.90;;;;;;4886813;29;20048;-84
2023/04/24 08:44:59;;;;;;;0.10;0.10;;;10.10;99.90;;;;;;4887312;29;20405;-83
2023/04/24 08:47:26;;;;;;;0.17;0.00;;;10.10;99.90;;;;;;4887306;29;20052;-82
2023/04/24 08:49:53;;;;;;;0.10;0.10;;;10.10;99.90;;;;;;4902589;29;20044;-83
2023/04/24 08:52:21;;;;;;;0.05;0.00;;;10.10;99.90;;;;;;4887239;29;20127;-84
2023/04/24 08:54:47;;;;;;;0.10;0.00;;;10.10;99.90;;;;;;4887491;29;20152;-85
2023/04/24 08:57:15;;;;;;;1.10;0.38;;;10.10;99.90;;;;;;4887126;29;20138;-85
2023/04/24 08:59:41;;;;;;;0.10;0.10;;;10.10;99.90;;;;;;4913984;29;20059;-88
2023/04/24 09:02:11;;;;;;;0.00;0.00;;;10.00;99.90;;;;;;4905710;29;20095;-86
2023/04/24 09:04:37;;;;;;;0.00;0.00;;;10.00;99.90;;;;;;4904994;29;20060;-86
2023/04/24 09:07:05;;;;;;;1.55;0.35;;;10.00;99.90;;;;;;4921240;29;20408;-86
2023/04/24 09:09:33;;;;;;;0.32;0.10;;;9.90;99.90;;;;;;4906567;29;20043;-86
2023/04/24 09:12:00;;;;;;;0.10;0.00;;;9.90;99.90;;;;;;4905065;29;20138;-87
2023/04/24 09:14:27;;;;;;;0.00;0.00;;;9.90;99.90;;;;;;4905755;29;20060;-86
2023/04/24 09:16:53;;;;;;;0.65;0.00;;;9.80;99.90;;;;;;4920719;29;20134;-86
2023/04/24 09:19:21;;;;;;;0.00;0.00;;;9.90;99.90;;;;;;4905440;29;20138;-84
2023/04/24 09:21:47;;;;;;;0.22;0.22;;;9.90;99.90;;;;;;4905352;29;20040;-83
2023/04/24 09:24:20;;;;;;;0.75;0.00;;;9.80;99.90;;;;;;4905287;29;20110;-83
2023/04/24 09:26:46;;;;;;;0.00;0.00;;;9.80;99.90;;;;;;4915193;29;20055;-87
2023/04/24 09:29:18;;;;;;;0.03;0.03;;;9.80;99.90;;;;;;4894411;29;20044;-87
2023/04/24 09:31:47;;;;;;;0.47;0.25;;;9.70;99.90;;;;;;4886509;29;20415;-87
2023/04/24 09:34:13;;;;;;;0.80;0.28;;;9.70;99.90;;;;;;4901632;29;20056;-87
2023/04/24 09:36:41;;;;;;;0.20;0.20;;;9.70;99.90;;;;;;4901436;29;20044;-87
2023/04/24 09:39:19;;;;;;;0.10;0.10;;;9.70;99.90;;;;;;4902088;29;20048;-86
2023/04/24 09:41:46;;;;;;;0.20;0.20;;;9.70;99.90;;;;;;4887622;29;20086;-86
2023/04/24 09:44:14;;;;;;;1.52;0.52;;;9.70;99.90;;;;;;4901339;29;20040;-86
2023/04/24 09:46:45;;;;;;;0.00;0.00;;;9.60;99.90;;;;;;4901450;29;20048;-85
2023/04/24 09:49:14;;;;;;;1.33;0.85;;;9.60;99.90;;;;;;4886175;29;20052;-85
2023/04/24 09:51:40;;;;;;;0.47;0.10;;;9.60;99.90;;;;;;4886083;29;20063;-86
2023/04/24 09:54:20;;;;;;;0.52;0.10;;;9.60;99.90;;;;;;4886026;29;20497;-87
2023/04/24 09:56:49;;;;;;;0.10;0.10;;;9.60;99.90;;;;;;4916089;29;20059;-86
2023/04/24 09:59:19;;;;;;;1.15;0.20;;;9.60;99.90;;;;;;4925453;29;20071;-85
2023/04/24 10:01:46;;;;;;;0.20;0.20;;;9.60;99.90;;;;;;4936213;29;20050;-86
2023/04/24 10:04:23;;;;;;;0.10;0.10;;;9.60;99.90;;;;;;4904618;29;20043;-89
2023/04/24 10:06:51;;;;;;;0.00;0.00;;;9.60;99.90;;;;;;4920345;29;20052;-87
2023/04/24 10:09:18;;;;;;;0.00;0.00;;;9.60;99.90;;;;;;4936144;29;20051;-86
2023/04/24 10:11:49;;;;;;;0.10;0.10;;;9.60;99.90;;;;;;4920002;29;20497;-85
2023/04/24 10:14:17;;;;;;;1.20;0.35;;;9.50;99.90;;;;;;4904673;29;20058;-83
2023/04/24 10:16:43;;;;;;;0.35;0.35;;;9.60;99.90;;;;;;4920295;29;20135;-85
2023/04/24 10:19:10;;;;;;;0.30;0.10;;;9.60;99.90;;;;;;4920166;29;20052;-85
2023/04/24 10:21:42;;;;;;;0.63;0.40;;;9.60;99.90;;;;;;4904460;29;20408;-86
2023/04/24 10:24:09;;;;;;;0.20;0.20;;;9.60;99.90;;;;;;4920085;29;20048;-86
2023/04/24 10:26:40;;;;;;;0.00;0.00;;;9.70;99.90;;;;;;4920626;29;20102;-86
2023/04/24 10:29:09;;;;;;;8.00;1.55;;;9.70;99.90;;;;;;4919435;29;20468;-87
2023/04/24 10:31:39;;;;;;;0.00;0.00;;;9.80;99.90;;;;;;4904942;29;20062;-86
2023/04/24 10:34:06;;;;;;;0.10;0.10;;;9.90;99.90;;;;;;4919831;29;20229;-87
2023/04/24 10:36:38;;;;;;;0.10;0.10;;;9.90;99.90;;;;;;4919586;29;20106;-86
2023/04/24 10:39:10;;;;;;;0.20;0.20;;;9.90;99.90;;;;;;4920093;29;20059;-86
2023/04/24 10:41:37;;;;;;;0.25;0.10;;;9.90;99.90;;;;;;4935882;29;20050;-87
2023/04/24 10:44:11;;;;;;;0.00;0.00;;;9.80;99.90;;;;;;4919268;29;20047;-86
2023/04/24 10:46:38;;;;;;;0.08;0.00;;;9.70;99.90;;;;;;4919761;29;20052;-86
2023/04/24 10:49:11;;;;;;;0.00;0.00;;;9.60;99.90;;;;;;4919742;29;20460;-87
2023/04/24 10:51:52;;;;;;;0.00;0.00;;;9.50;99.90;;;;;;4919630;29;20118;-86
2023/04/24 10:54:36;;;;;;;0.00;0.00;;;9.40;99.90;;;;;;4919687;29;20058;-86
2023/04/24 10:57:21;;;;;;;0.00;0.00;;;9.20;99.90;;;;;;4919744;29;20142;-86
2023/04/24 10:59:48;;;;;;;0.00;0.00;;;9.20;99.90;;;;;;4922401;29;20121;-86
2023/04/24 11:02:15;;;;;;;0.05;0.00;;;9.10;99.90;;;;;;4891800;29;20059;-86
2023/04/24 11:04:44;;;;;;;0.63;0.45;;;9.10;99.90;;;;;;4938480;29;20039;-86
2023/04/24 11:07:11;;;;;;;0.00;0.00;;;9.00;99.90;;;;;;4892279;29;20055;-85
2023/04/24 11:09:40;;;;;;;0.65;0.25;;;9.10;99.90;;;;;;4922584;29;20133;-85
2023/04/24 11:12:14;;;;;;;0.00;0.00;;;9.10;99.90;;;;;;4937895;29;20062;-85
2023/04/24 11:15:00;;;;;;;0.03;0.00;;;9.20;99.90;;;;;;4938304;29;20558;-85
2023/04/24 11:17:37;;;;;;;0.20;0.05;;;9.20;99.90;;;;;;4922590;29;20110;-85
2023/04/24 11:20:11;;;;;;;0.00;0.00;;;9.30;99.90;;;;;;4938343;29;20047;-84
2023/04/24 11:22:40;;;;;;;0.00;0.00;;;9.40;99.90;;;;;;4922397;29;20051;-85
2023/04/24 11:25:06;;;;;;;0.17;0.17;;;9.50;99.90;;;;;;4922380;29;20658;-84
2023/04/24 11:27:40;;;;;;;0.00;0.00;;;9.50;99.90;;;;;;4922585;29;20055;-84
2023/04/24 11:30:07;;;;;;;0.05;0.05;;;9.60;99.90;;;;;;4922440;29;20090;-84
2023/04/24 11:32:32;;;;;;;0.00;0.00;;;9.70;99.90;;;;;;4938074;29;20055;-84
2023/04/24 11:35:24;;;;;;;0.00;0.00;;;9.80;99.90;;;;;;4938216;29;20047;-85
2023/04/24 11:37:53;;;;;;;0.00;0.00;;;9.80;99.90;;;;;;4922595;29;20538;-85
2023/04/24 11:40:22;;;;;;;0.00;0.00;;;9.90;99.90;;;;;;4925168;29;20499;-85
2023/04/24 11:42:52;;;;;;;0.00;0.00;;;9.90;99.90;;;;;;4925803;29;20443;-85
2023/04/24 11:45:23;;;;;;;0.00;0.00;;;9.90;99.90;;;;;;4941466;29;20134;-85
2023/04/24 11:47:49;;;;;;;0.00;0.00;;;9.80;99.90;;;;;;4941861;29;20117;-85
2023/04/24 11:50:17;;;;;;;0.20;0.20;;;9.80;99.90;;;;;;4925865;29;20059;-84
2023/04/24 11:52:49;;;;;;;0.00;0.00;;;9.70;99.90;;;;;;4917802;29;20107;-87
2023/04/24 11:55:15;;;;;;;0.00;0.00;;;9.70;99.90;;;;;;4916789;29;20090;-84
2023/04/24 11:57:45;;;;;;;0.00;0.00;;;9.60;99.90;;;;;;4922574;29;20075;-86
2023/04/24 12:00:20;;;;;;;0.08;0.08;;;9.60;99.90;;;;;;4922857;29;20106;-87
2023/04/24 12:02:49;;;;;;;0.10;0.10;;;9.60;99.90;;;;;;4923371;29;20046;-88
2023/04/24 12:05:31;;;;;;;0.00;0.00;;;9.60;99.90;;;;;;4909729;29;20412;-86
2023/04/24 12:07:59;;;;;;;0.00;0.00;;;9.60;99.90;;;;;;4916099;29;20051;-87
2023/04/24 12:10:30;;;;;;;0.00;0.00;;;9.70;99.90;;;;;;4935027;29;20047;-86
2023/04/24 12:13:00;;;;;;;0.00;0.00;;;9.80;99.90;;;;;;4911998;29;20495;-87
2023/04/24 12:15:27;;;;;;;0.03;0.03;;;9.90;99.90;;;;;;4935831;29;20126;-86
2023/04/24 12:17:54;;;;;;;0.00;0.00;;;10.00;99.90;;;;;;4915284;29;20047;-87
2023/04/24 12:20:28;;;;;;;0.63;0.20;;;10.00;99.90;;;;;;4913045;29;20146;-86
2023/04/24 12:22:56;;;;;;;0.00;0.00;;;9.90;99.90;;;;;;4921923;29;20129;-85
2023/04/24 12:25:31;;;;;;;2.63;0.80;;;10.00;99.90;;;;;;4926700;29;20069;-88
2023/04/24 12:28:03;;;;;;;0.00;0.00;;;9.80;99.90;;;;;;4932143;29;20047;-87
2023/04/24 12:30:39;;;;;;;0.28;0.10;;;9.90;99.90;;;;;;4919675;29;20106;-86
2023/04/24 12:33:05;;;;;;;0.00;0.00;;;10.00;99.90;;;;;;4925136;29;20055;-85
2023/04/24 12:35:35;;;;;;;0.00;0.00;;;10.00;99.90;;;;;;4918548;29;20403;-87
2023/04/24 12:38:12;;;;;;;0.00;0.00;;;10.00;99.90;;;;;;4916331;29;20047;-89
2023/04/24 12:40:38;;;;;;;7.28;0.43;;;10.10;99.90;;;;;;4910947;29;20055;-84
2023/04/24 12:43:16;;;;;;;0.00;0.00;;;10.10;99.90;;;;;;4920928;29;20129;-87
2023/04/24 12:45:45;;;;;;;0.00;0.00;;;10.00;99.80;;;;;;4929296;29;20070;-89
2023/04/24 12:48:17;;;;;;;0.00;0.00;;;9.90;99.90;;;;;;4898022;29;20125;-89
2023/04/24 12:50:43;;;;;;;0.00;0.00;;;10.00;99.90;;;;;;4904900;29;20059;-86
2023/04/24 12:53:10;;;;;;;0.00;0.00;;;10.00;99.90;;;;;;4921345;29;20043;-86
2023/04/24 12:55:40;;;;;;;0.00;0.00;;;10.00;99.90;;;;;;4921605;29;20052;-88
2023/04/24 12:58:06;;;;;;;0.00;0.00;;;9.90;99.90;;;;;;4907287;29;20416;-87
2023/04/24 13:00:32;;;;;;;0.10;0.00;;;9.80;99.90;;;;;;4923614;29;20058;-88
2023/04/24 13:02:58;;;;;;;0.00;0.00;;;9.80;99.90;;;;;;4924220;29;20578;-87
2023/04/24 13:05:24;;;;;;;0.03;0.00;;;9.80;99.90;;;;;;4924202;29;20083;-87
2023/04/24 13:07:50;;;;;;;0.00;0.00;;;9.80;99.90;;;;;;4908797;29;20130;-87
2023/04/24 13:10:18;;;;;;;0.00;0.00;;;9.90;99.90;;;;;;4909133;29;20198;-87
2023/04/24 13:12:50;;;;;;;0.00;0.00;;;10.00;99.90;;;;;;4924437;29;20078;-87
2023/04/24 13:15:18;;;;;;;0.00;0.00;;;10.10;99.30;;;;;;4925649;29;20048;-88
2023/04/24 13:17:46;;;;;;;0.00;0.00;;;10.10;98.60;;;;;;4902365;29;20044;-88
2023/04/24 13:20:12;;;;;;;0.00;0.00;;;10.10;98.30;;;;;;4920798;29;20043;-87
2023/04/24 13:22:37;;;;;;;0.00;0.00;;;10.10;98.70;;;;;;4921374;29;20058;-86
2023/04/24 13:25:06;;;;;;;0.38;0.28;;;10.10;98.30;;;;;;4907925;29;20039;-85